Time;durP1;ratioP1;P1;durP2;ratioP2;P2;SDS_P1;SDS_P2;PMS_P1;PMS_P2;Temp;Humidity;BMP_temperature;BMP_pressure;BME280_temperature;BME280_humidity;BME280_pressure;Samples;Min_cycle;Max_cycle;Signal;HPM_P1;HPM_P2
2023/03/06 00:00:34;;;;;;;;;;;8.00;90.30;;;;;;5067900;28;20024;-71
2023/03/06 00:03:00;;;;;;;;;;;7.90;90.30;;;;;;5067892;28;19908;-72
2023/03/06 00:05:26;;;;;;;7.72;7.32;;;7.90;90.20;;;;;;5067360;28;19912;-71
2023/03/06 00:07:52;;;;;;;9.00;8.60;;;7.80;90.20;;;;;;5066162;28;20032;-71
2023/03/06 00:10:21;;;;;;;9.63;9.13;;;7.70;90.20;;;;;;5067377;28;20033;-71
2023/03/06 00:12:47;;;;;;;10.50;10.00;;;7.70;90.30;;;;;;5067174;28;20040;-71
2023/03/06 00:15:13;;;;;;;11.60;11.10;;;7.80;90.30;;;;;;5067074;28;20077;-71
2023/03/06 00:17:39;;;;;;;9.98;9.48;;;7.80;90.30;;;;;;5066870;28;20068;-72
2023/03/06 00:20:06;;;;;;;;;;;7.80;90.30;;;;;;5067707;28;20034;-72
2023/03/06 00:22:32;;;;;;;9.50;9.02;;;7.70;90.30;;;;;;5067133;28;20252;-71
2023/03/06 00:24:58;;;;;;;10.52;10.02;;;7.70;90.30;;;;;;5066827;28;20029;-72
2023/03/06 00:27:25;;;;;;;11.70;11.20;;;7.70;90.30;;;;;;5067277;28;20043;-72
2023/03/06 00:29:58;;;;;;;11.02;10.52;;;7.70;90.30;;;;;;5067040;28;20040;-72
2023/03/06 00:32:25;;;;;;;13.45;12.85;;;7.70;90.30;;;;;;5066927;28;20369;-72
2023/03/06 00:34:51;;;;;;;12.63;12.05;;;7.70;90.30;;;;;;5065896;28;20440;-71
2023/03/06 00:37:18;;;;;;;12.43;11.85;;;7.70;90.30;;;;;;5066938;28;20059;-71
2023/03/06 00:39:44;;;;;;;14.15;13.55;;;7.80;90.40;;;;;;5067033;28;20020;-72
2023/03/06 00:42:11;;;;;;;14.13;13.52;;;7.80;90.40;;;;;;5067156;28;20506;-72
2023/03/06 00:44:36;;;;;;;;;;;7.80;90.40;;;;;;5067590;28;20031;-71
2023/03/06 00:47:02;;;;;;;12.63;12.02;;;7.80;90.30;;;;;;5067434;28;20443;-71
2023/03/06 00:49:28;;;;;;;12.98;12.38;;;7.90;90.30;;;;;;5065806;28;20400;-71
2023/03/06 00:51:53;;;;;;;14.15;13.55;;;7.90;90.30;;;;;;5067093;28;20039;-72
2023/03/06 00:54:19;;;;;;;15.90;15.20;;;7.90;90.40;;;;;;5065827;28;20108;-72
2023/03/06 00:56:45;;;;;;;14.27;13.68;;;7.90;90.30;;;;;;5066940;28;20029;-72
2023/03/06 00:59:10;;;;;;;13.40;12.80;;;7.90;90.40;;;;;;5065823;28;20511;-71
2023/03/06 01:01:36;;;;;;;14.32;13.73;;;7.90;90.30;;;;;;5065468;28;20033;-71
2023/03/06 01:04:02;;;;;;;15.60;14.95;;;7.80;90.30;;;;;;5065784;28;20032;-72
2023/03/06 01:06:28;;;;;;;14.70;14.10;;;7.80;90.40;;;;;;5066843;28;20040;-71
2023/03/06 01:08:54;;;;;;;15.18;14.57;;;7.90;90.40;;;;;;5066965;28;20297;-71
2023/03/06 01:11:20;;;;;;;15.95;15.25;;;7.90;90.40;;;;;;5067147;28;20116;-71
2023/03/06 01:13:46;;;;;;;16.02;15.32;;;7.90;90.40;;;;;;5066807;28;20537;-72
2023/03/06 01:16:14;;;;;;;16.05;15.35;;;7.80;90.40;;;;;;5066632;28;20044;-71
2023/03/06 01:18:41;;;;;;;16.42;15.73;;;7.90;90.40;;;;;;5066804;28;20024;-72
2023/03/06 01:21:07;;;;;;;16.45;15.75;;;7.90;90.40;;;;;;5066806;28;20147;-71
2023/03/06 01:23:33;;;;;;;15.65;14.95;;;7.90;90.40;;;;;;5066801;28;20106;-71
2023/03/06 01:25:59;;;;;;;17.42;16.73;;;7.90;90.40;;;;;;5066704;28;20039;-72
2023/03/06 01:28:25;;;;;;;15.05;14.45;;;7.80;90.40;;;;;;5066667;28;20036;-72
2023/03/06 01:30:51;;;;;;;15.75;15.05;;;7.80;90.40;;;;;;5066798;28;20190;-71
2023/03/06 01:33:18;;;;;;;16.50;15.80;;;7.80;90.40;;;;;;5065334;28;20112;-72
2023/03/06 01:35:43;;;;;;;16.45;15.75;;;7.80;90.40;;;;;;5066927;28;20419;-72
2023/03/06 01:38:10;;;;;;;17.42;16.73;;;7.80;90.40;;;;;;5069359;28;20037;-72
2023/03/06 01:40:36;;;;;;;17.23;16.52;;;7.80;90.40;;;;;;5070198;28;20033;-72
2023/03/06 01:43:28;;;;;;;17.08;16.38;;;7.90;90.40;;;;;;5070210;28;20035;-71
2023/03/06 01:46:24;;;;;;;16.70;16.00;;;7.80;90.40;;;;;;5070058;28;20052;-71
2023/03/06 01:49:22;;;;;;;16.33;15.63;;;7.80;90.40;;;;;;5068713;28;20491;-71
2023/03/06 01:51:58;;;;;;;;;;;7.80;90.40;;;;;;5056896;28;20041;-71
2023/03/06 01:54:34;;;;;;;14.57;13.98;;;7.80;90.40;;;;;;5069818;28;19927;-71
2023/03/06 01:57:09;;;;;;;16.42;15.73;;;7.80;90.40;;;;;;5069736;28;20029;-71
2023/03/06 01:59:37;;;;;;;16.95;16.25;;;7.80;90.40;;;;;;5069959;28;20032;-71
2023/03/06 02:02:05;;;;;;;17.75;17.05;;;7.90;90.40;;;;;;5069804;28;20453;-71
2023/03/06 02:04:32;;;;;;;17.85;17.15;;;7.80;90.40;;;;;;5069817;28;20417;-71
2023/03/06 02:07:00;;;;;;;18.00;17.30;;;7.80;90.60;;;;;;5069707;28;20043;-71
2023/03/06 02:09:29;;;;;;;17.83;17.13;;;7.80;90.40;;;;;;5069725;28;20389;-71
2023/03/06 02:11:54;;;;;;;19.42;18.63;;;7.80;90.40;;;;;;5069682;28;20028;-71
2023/03/06 02:14:20;;;;;;;18.95;18.15;;;7.80;90.40;;;;;;5069536;28;20043;-71
2023/03/06 02:16:47;;;;;;;19.85;19.05;;;7.70;90.60;;;;;;5069339;28;20575;-71
2023/03/06 02:19:20;;;;;;;;;;;7.70;90.40;;;;;;5069865;28;20112;-71
2023/03/06 02:21:45;;;;;;;17.65;16.95;;;7.80;90.50;;;;;;5069596;28;19905;-71
2023/03/06 02:24:31;;;;;;;20.25;19.45;;;7.70;90.40;;;;;;5068157;28;20120;-71
2023/03/06 02:26:58;;;;;;;19.77;18.98;;;7.70;90.40;;;;;;5069345;28;20024;-71
2023/03/06 02:29:27;;;;;;;20.40;19.60;;;7.70;90.40;;;;;;5069374;28;20032;-71
2023/03/06 02:31:53;;;;;;;21.08;20.27;;;7.80;90.40;;;;;;5069151;28;20306;-71
2023/03/06 02:34:18;;;;;;;22.60;21.70;;;7.80;90.40;;;;;;5069244;28;20038;-71
2023/03/06 02:36:48;;;;;;;22.80;21.90;;;7.80;90.50;;;;;;5069041;28;20488;-71
2023/03/06 02:39:15;;;;;;;22.95;22.05;;;7.80;90.50;;;;;;5069246;28;20384;-71
2023/03/06 02:41:40;;;;;;;23.17;22.27;;;7.80;90.40;;;;;;5069144;28;20033;-71
2023/03/06 02:44:06;;;;;;;22.50;21.60;;;7.80;90.40;;;;;;5068960;28;20078;-71
2023/03/06 02:46:32;;;;;;;23.65;22.75;;;7.80;90.40;;;;;;5068911;28;20032;-71
2023/03/06 02:48:57;;;;;;;23.45;22.55;;;7.80;90.50;;;;;;5067842;28;20028;-71
2023/03/06 02:51:23;;;;;;;22.55;21.65;;;7.70;90.40;;;;;;5069083;28;20037;-71
2023/03/06 02:53:49;;;;;;;23.27;22.38;;;7.70;90.40;;;;;;5068854;28;20111;-71
2023/03/06 02:56:15;;;;;;;25.02;24.02;;;7.70;90.40;;;;;;5067330;28;20037;-71
2023/03/06 02:58:41;;;;;;;24.60;23.63;;;7.70;90.40;;;;;;5068744;28;20020;-71
2023/03/06 03:01:07;;;;;;;24.00;23.08;;;7.70;90.40;;;;;;5068740;28;20507;-71
2023/03/06 03:03:33;;;;;;;26.27;25.27;;;7.70;90.40;;;;;;5067296;28;20179;-71
2023/03/06 03:05:59;;;;;;;24.88;23.88;;;7.80;90.40;;;;;;5068512;28;20024;-71
2023/03/06 03:08:26;;;;;;;;;;;7.70;90.40;;;;;;5068961;28;20059;-71
2023/03/06 03:10:52;;;;;;;23.00;22.10;;;7.70;90.40;;;;;;5068982;28;19911;-71
2023/03/06 03:13:18;;;;;;;26.55;25.55;;;7.70;90.40;;;;;;5068469;28;20025;-71
2023/03/06 03:15:44;;;;;;;;;;;7.70;90.40;;;;;;5068652;28;20511;-71
2023/03/06 03:18:10;;;;;;;24.33;23.38;;;7.70;90.40;;;;;;5068380;28;19912;-71
2023/03/06 03:20:39;;;;;;;28.50;27.40;;;7.70;90.40;;;;;;5068212;28;20456;-71
2023/03/06 03:23:05;;;;;;;28.67;27.58;;;7.70;90.40;;;;;;5068085;28;20016;-71
2023/03/06 03:25:31;;;;;;;28.67;27.58;;;7.70;90.40;;;;;;5050078;28;20073;-71
2023/03/06 03:27:56;;;;;;;31.50;30.30;;;7.70;90.40;;;;;;5066509;28;20124;-71
2023/03/06 03:30:22;;;;;;;29.58;28.48;;;7.70;90.40;;;;;;5068066;28;20029;-71
2023/03/06 03:32:48;;;;;;;30.45;29.30;;;7.70;90.40;;;;;;5068031;28;20437;-71
2023/03/06 03:35:13;;;;;;;32.10;30.90;;;7.70;90.40;;;;;;5067802;28;20453;-71
2023/03/06 03:37:39;;;;;;;32.08;30.88;;;7.70;90.40;;;;;;5067885;28;20032;-71
2023/03/06 03:40:06;;;;;;;33.67;32.38;;;7.70;90.40;;;;;;5067895;28;20074;-71
2023/03/06 03:42:32;;;;;;;30.38;29.23;;;7.70;90.40;;;;;;5067705;28;20029;-71
2023/03/06 03:44:58;;;;;;;31.33;30.13;;;7.70;90.40;;;;;;5067591;28;20020;-71
2023/03/06 03:47:23;;;;;;;33.08;31.88;;;7.70;90.40;;;;;;5067646;28;20389;-71
2023/03/06 03:49:49;;;;;;;33.55;32.28;;;7.70;90.50;;;;;;5067674;28;20075;-71
2023/03/06 03:52:15;;;;;;;34.67;33.38;;;7.70;90.50;;;;;;5067687;28;20098;-71
2023/03/06 03:54:42;;;;;;;34.75;33.45;;;7.70;90.50;;;;;;5066502;28;20404;-71
2023/03/06 03:57:07;;;;;;;33.92;32.63;;;7.70;90.50;;;;;;5067431;28;20036;-71
2023/03/06 03:59:33;;;;;;;34.75;33.45;;;7.70;90.50;;;;;;5067395;28;20392;-71
2023/03/06 04:01:59;;;;;;;36.20;34.88;;;7.70;90.50;;;;;;5067594;28;20305;-71
2023/03/06 04:04:25;;;;;;;36.60;35.20;;;7.80;90.50;;;;;;5067594;28;20102;-71
2023/03/06 04:06:51;;;;;;;36.13;34.80;;;7.80;90.50;;;;;;5067448;28;20563;-71
2023/03/06 04:09:16;;;;;;;36.67;35.28;;;7.70;90.50;;;;;;5067557;28;20476;-71
2023/03/06 04:11:42;;;;;;;38.15;36.75;;;7.70;90.40;;;;;;5066334;28;20052;-71
2023/03/06 04:14:08;;;;;;;38.72;37.33;;;7.70;90.40;;;;;;5067832;28;20060;-71
2023/03/06 04:16:34;;;;;;;37.67;36.28;;;7.70;90.50;;;;;;5067242;28;20493;-71
2023/03/06 04:19:00;;;;;;;39.55;38.08;;;7.70;90.50;;;;;;5067358;28;20124;-72
2023/03/06 04:21:26;;;;;;;40.25;38.75;;;7.70;90.50;;;;;;5067401;28;20027;-71
2023/03/06 04:23:51;;;;;;;39.65;38.17;;;7.80;90.50;;;;;;5067412;28;20101;-71
2023/03/06 04:26:17;;;;;;;40.28;38.78;;;7.80;90.50;;;;;;5067321;28;20440;-71
2023/03/06 04:28:43;;;;;;;40.88;39.38;;;7.80;90.50;;;;;;5067337;28;20033;-71
2023/03/06 04:31:13;;;;;;;39.25;37.83;;;7.80;90.50;;;;;;5065943;28;20079;-71
2023/03/06 04:33:38;;;;;;;38.85;37.45;;;7.80;90.50;;;;;;5067266;28;20039;-71
2023/03/06 04:36:04;;;;;;;40.65;39.15;;;7.80;90.50;;;;;;5067277;28;20028;-71
2023/03/06 04:38:30;;;;;;;43.33;41.72;;;7.80;90.50;;;;;;5065878;28;20037;-71
2023/03/06 04:40:56;;;;;;;41.00;39.50;;;7.80;90.50;;;;;;5067205;28;20384;-71
2023/03/06 04:43:21;;;;;;;41.00;39.50;;;7.80;90.50;;;;;;5067101;28;20395;-71
2023/03/06 04:45:47;;;;;;;42.20;40.65;;;7.80;90.50;;;;;;5067231;28;20035;-71
2023/03/06 04:48:17;;;;;;;41.10;39.60;;;7.80;90.50;;;;;;5067148;28;20434;-71
2023/03/06 04:50:43;;;;;;;39.55;38.08;;;7.70;90.50;;;;;;5065873;28;20032;-71
2023/03/06 04:53:09;;;;;;;41.60;40.10;;;7.70;90.50;;;;;;5066935;28;20078;-72
2023/03/06 04:55:35;;;;;;;40.10;38.60;;;7.70;90.50;;;;;;5067485;28;20488;-72
2023/03/06 04:58:01;;;;;;;40.38;38.88;;;7.70;90.50;;;;;;5066935;28;20024;-71
2023/03/06 05:00:29;;;;;;;38.90;37.50;;;7.70;90.50;;;;;;5066891;28;20078;-72
2023/03/06 05:02:56;;;;;;;40.92;39.42;;;7.70;90.50;;;;;;5066846;28;20436;-72
2023/03/06 05:05:22;;;;;;;39.45;38.00;;;7.70;90.50;;;;;;5066682;28;20017;-71
2023/03/06 05:07:47;;;;;;;40.00;38.50;;;7.70;90.50;;;;;;5066851;28;20032;-71
2023/03/06 05:10:15;;;;;;;39.63;38.15;;;7.70;90.50;;;;;;5066934;28;20028;-72
2023/03/06 05:12:41;;;;;;;40.60;39.10;;;7.70;90.50;;;;;;5069059;28;20078;-72
2023/03/06 05:15:08;;;;;;;41.65;40.15;;;7.70;90.60;;;;;;5070638;28;20104;-72
2023/03/06 05:17:34;;;;;;;41.15;39.65;;;7.70;90.60;;;;;;5070543;28;20048;-71
2023/03/06 05:20:00;;;;;;;42.45;40.90;;;7.70;90.70;;;;;;5069385;28;20032;-72
2023/03/06 05:22:25;;;;;;;42.22;40.70;;;7.70;90.50;;;;;;5069318;28;20496;-71
2023/03/06 05:24:51;;;;;;;42.25;40.72;;;7.70;90.50;;;;;;5070421;28;20036;-71
2023/03/06 05:27:17;;;;;;;40.75;39.25;;;7.70;90.50;;;;;;5070514;28;20029;-72
2023/03/06 05:29:43;;;;;;;42.28;40.78;;;7.70;90.50;;;;;;5070449;28;20085;-72
2023/03/06 05:32:09;;;;;;;40.38;38.88;;;7.60;90.50;;;;;;5070388;28;20503;-72
2023/03/06 05:34:34;;;;;;;41.17;39.67;;;7.60;90.50;;;;;;5070407;28;20059;-72
2023/03/06 05:37:00;;;;;;;41.45;39.95;;;7.60;90.50;;;;;;5068886;28;20194;-72
2023/03/06 05:39:29;;;;;;;40.03;38.53;;;7.60;90.50;;;;;;5069041;28;20046;-72
2023/03/06 05:41:55;;;;;;;38.70;37.30;;;7.50;90.50;;;;;;5069087;28;20036;-72
2023/03/06 05:44:22;;;;;;;39.05;37.65;;;7.50;90.50;;;;;;5070260;28;20582;-72
2023/03/06 05:46:49;;;;;;;39.70;38.22;;;7.50;90.50;;;;;;5069939;28;20610;-71
2023/03/06 05:49:15;;;;;;;40.10;38.60;;;7.50;90.60;;;;;;5070081;28;20393;-73
2023/03/06 05:51:41;;;;;;;41.30;39.80;;;7.50;90.60;;;;;;5070033;28;20037;-72
2023/03/06 05:54:06;;;;;;;41.95;40.45;;;7.50;90.50;;;;;;5069834;28;20036;-71
2023/03/06 05:56:32;;;;;;;40.30;38.80;;;7.60;90.60;;;;;;5069715;28;20027;-72
2023/03/06 05:58:58;;;;;;;39.70;38.22;;;7.50;90.50;;;;;;5069859;28;20028;-71
2023/03/06 06:01:24;;;;;;;41.00;39.50;;;7.60;90.50;;;;;;5069415;28;20472;-71
2023/03/06 06:03:50;;;;;;;39.63;38.15;;;7.50;90.50;;;;;;5068813;28;20083;-71
2023/03/06 06:06:16;;;;;;;39.15;37.70;;;7.50;90.50;;;;;;5069701;28;20020;-71
2023/03/06 06:08:42;;;;;;;37.00;35.60;;;7.50;90.50;;;;;;5069679;28;20111;-71
2023/03/06 06:11:10;;;;;;;38.80;37.40;;;7.50;90.50;;;;;;5068332;28;20568;-71
2023/03/06 06:13:37;;;;;;;38.95;37.55;;;7.50;90.50;;;;;;5068324;28;20025;-72
2023/03/06 06:16:21;;;;;;;36.00;34.67;;;7.40;90.50;;;;;;5068112;28;20091;-72
2023/03/06 06:18:46;;;;;;;37.88;36.47;;;7.40;90.60;;;;;;5069383;28;20139;-71
2023/03/06 06:21:13;;;;;;;39.72;38.22;;;7.40;90.50;;;;;;5069443;28;20447;-71
2023/03/06 06:23:39;;;;;;;37.13;35.75;;;7.40;90.50;;;;;;5069151;28;20093;-71
2023/03/06 06:26:06;;;;;;;;;;;7.40;90.50;;;;;;5069802;28;20033;-71
2023/03/06 06:28:32;;;;;;;37.38;35.97;;;7.40;90.60;;;;;;5069340;28;19904;-72
2023/03/06 06:30:58;;;;;;;36.70;35.30;;;7.40;90.50;;;;;;5067732;28;20450;-72
2023/03/06 06:33:24;;;;;;;36.83;35.42;;;7.40;90.50;;;;;;5069286;28;20037;-72
2023/03/06 06:35:50;;;;;;;36.22;34.90;;;7.40;90.50;;;;;;5068989;28;20033;-71
2023/03/06 06:38:16;;;;;;;36.47;35.15;;;7.40;90.60;;;;;;5067604;28;20028;-72
2023/03/06 06:40:42;;;;;;;38.13;36.72;;;7.40;90.60;;;;;;5069083;28;20514;-72
2023/03/06 06:43:07;;;;;;;34.35;33.05;;;7.40;90.60;;;;;;5067825;28;20029;-72
2023/03/06 06:45:33;;;;;;;35.28;33.97;;;7.40;90.50;;;;;;5068894;28;20099;-71
2023/03/06 06:47:59;;;;;;;30.95;29.75;;;7.40;90.50;;;;;;5067889;28;20101;-72
2023/03/06 06:50:25;;;;;;;29.63;28.52;;;7.40;90.50;;;;;;5068850;28;20037;-72
2023/03/06 06:52:50;;;;;;;28.35;27.25;;;7.40;90.50;;;;;;5067719;28;20107;-72
2023/03/06 06:55:16;;;;;;;27.83;26.73;;;7.40;90.50;;;;;;5068676;28;20041;-71
2023/03/06 06:57:42;;;;;;;26.75;25.75;;;7.30;90.50;;;;;;5068628;28;20024;-72
2023/03/06 07:00:10;;;;;;;27.70;26.60;;;7.30;90.50;;;;;;5068393;28;20369;-71
2023/03/06 07:02:35;;;;;;;26.85;25.85;;;7.30;90.50;;;;;;5067089;28;20047;-71
2023/03/06 07:05:01;;;;;;;25.73;24.73;;;7.30;90.60;;;;;;5068390;28;20090;-72
2023/03/06 07:07:27;;;;;;;24.52;23.55;;;7.30;90.60;;;;;;5050132;28;20047;-71
2023/03/06 07:09:54;;;;;;;25.20;24.20;;;7.30;90.60;;;;;;5050247;28;20029;-72
2023/03/06 07:12:19;;;;;;;24.75;23.75;;;7.30;90.60;;;;;;5068473;28;20115;-72
2023/03/06 07:14:45;;;;;;;26.67;25.67;;;7.40;90.60;;;;;;5066454;28;20115;-71
2023/03/06 07:17:11;;;;;;;29.75;28.65;;;7.40;90.60;;;;;;5067731;28;20052;-71
2023/03/06 07:19:37;;;;;;;27.15;26.15;;;7.50;90.60;;;;;;5066866;28;20423;-72
2023/03/06 07:22:03;;;;;;;29.33;28.23;;;7.50;90.60;;;;;;5067804;28;20028;-71
2023/03/06 07:24:29;;;;;;;;;;;7.50;90.50;;;;;;5050558;28;20029;-71
2023/03/06 07:26:54;;;;;;;27.60;26.52;;;7.50;90.50;;;;;;5067892;28;19912;-71
2023/03/06 07:29:20;;;;;;;26.92;25.92;;;7.50;90.50;;;;;;5067803;28;20032;-71
2023/03/06 07:31:46;;;;;;;27.30;26.30;;;7.50;90.50;;;;;;5066798;28;20411;-71
2023/03/06 07:34:12;;;;;;;25.27;24.27;;;7.40;90.50;;;;;;5065941;28;20029;-71
2023/03/06 07:36:42;;;;;;;24.88;23.88;;;7.50;90.60;;;;;;5067609;28;20093;-71
2023/03/06 07:39:08;;;;;;;25.95;24.95;;;7.50;90.50;;;;;;5067477;28;20393;-71
2023/03/06 07:41:34;;;;;;;24.42;23.45;;;7.40;90.50;;;;;;5067695;28;20031;-72
2023/03/06 07:44:00;;;;;;;26.65;25.65;;;7.40;90.60;;;;;;5067738;28;20020;-72
2023/03/06 07:46:26;;;;;;;25.67;24.67;;;7.50;90.60;;;;;;5067533;28;20365;-71
2023/03/06 07:48:51;;;;;;;27.23;26.23;;;7.50;90.70;;;;;;5067615;28;20029;-71
2023/03/06 07:51:20;;;;;;;27.02;26.02;;;7.60;90.70;;;;;;5067566;28;20035;-71
2023/03/06 07:53:47;;;;;;;25.65;24.65;;;7.60;90.70;;;;;;5067305;28;20017;-71
2023/03/06 07:56:13;;;;;;;25.98;24.98;;;7.70;90.60;;;;;;5067472;28;20017;-71
2023/03/06 07:58:42;;;;;;;26.23;25.23;;;7.70;90.60;;;;;;5065832;28;20400;-71
2023/03/06 08:01:19;;;;;;;29.20;28.10;;;7.70;90.60;;;;;;5067087;28;20138;-71
2023/03/06 08:03:46;;;;;;;28.10;27.00;;;7.80;90.60;;;;;;5067131;28;20027;-71
2023/03/06 08:06:15;;;;;;;28.58;27.48;;;7.70;90.50;;;;;;5067156;28;20017;-70
2023/03/06 08:08:42;;;;;;;28.70;27.60;;;7.80;90.60;;;;;;5067206;28;20033;-70
2023/03/06 08:11:09;;;;;;;27.70;26.60;;;7.80;90.60;;;;;;5067096;28;20101;-71
2023/03/06 08:13:35;;;;;;;28.27;27.17;;;7.80;90.60;;;;;;5066989;28;20120;-70
2023/03/06 08:16:02;;;;;;;28.17;27.08;;;7.80;90.60;;;;;;5065622;28;20395;-70
2023/03/06 08:18:28;;;;;;;29.50;28.40;;;7.80;90.60;;;;;;5067060;28;20093;-70
2023/03/06 08:21:09;;;;;;;30.27;29.15;;;7.80;90.60;;;;;;5067086;28;20100;-71
2023/03/06 08:23:35;;;;;;;28.85;27.75;;;7.90;90.60;;;;;;5065613;28;20043;-70
2023/03/06 08:26:16;;;;;;;28.27;27.17;;;7.90;90.60;;;;;;5065518;28;20020;-71
2023/03/06 08:28:41;;;;;;;30.17;29.08;;;7.90;90.60;;;;;;5066970;28;20032;-71
2023/03/06 08:31:25;;;;;;;29.40;28.30;;;7.90;90.60;;;;;;5067334;28;20384;-69
2023/03/06 08:33:51;;;;;;;29.80;28.70;;;8.00;90.60;;;;;;5066912;28;20032;-71
2023/03/06 08:36:17;;;;;;;;;;;8.00;90.70;;;;;;5067250;28;20032;-70
2023/03/06 08:38:42;;;;;;;26.55;25.55;;;8.10;90.70;;;;;;5066797;28;19977;-71
2023/03/06 08:41:08;;;;;;;30.83;29.65;;;8.20;90.80;;;;;;5066395;28;20040;-71
2023/03/06 08:43:34;;;;;;;31.13;29.92;;;8.40;90.80;;;;;;5065634;28;20540;-72
2023/03/06 08:46:00;;;;;;;;;;;8.50;90.70;;;;;;5068405;28;20028;-72
2023/03/06 08:48:26;;;;;;;28.58;27.48;;;8.70;90.70;;;;;;5070702;28;20287;-72
2023/03/06 08:50:52;;;;;;;29.35;28.25;;;8.80;90.60;;;;;;5070553;28;20048;-72
2023/03/06 08:53:18;;;;;;;27.88;26.77;;;8.80;90.70;;;;;;5071065;28;20029;-72
2023/03/06 08:55:44;;;;;;;27.60;26.50;;;8.90;90.60;;;;;;5070285;28;20370;-72
2023/03/06 08:58:09;;;;;;;27.40;26.35;;;8.90;90.70;;;;;;5069226;28;20047;-72
2023/03/06 09:00:36;;;;;;;27.80;26.73;;;9.00;90.70;;;;;;5070392;28;20100;-71
2023/03/06 09:03:02;;;;;;;26.95;25.95;;;9.00;90.70;;;;;;5070400;28;20036;-72
2023/03/06 09:05:28;;;;;;;25.20;24.20;;;9.10;90.70;;;;;;5073050;28;20048;-72
2023/03/06 09:07:54;;;;;;;24.30;22.85;;;9.10;90.70;;;;;;5080454;28;20574;-71
2023/03/06 09:10:22;;;;;;;22.55;21.65;;;9.10;90.70;;;;;;5080697;28;20036;-72
2023/03/06 09:12:48;;;;;;;24.05;23.15;;;9.20;90.70;;;;;;5085221;28;20032;-72
2023/03/06 09:15:15;;;;;;;24.08;23.17;;;9.20;90.70;;;;;;5091179;28;20055;-71
2023/03/06 09:17:44;;;;;;;21.75;20.85;;;9.20;90.70;;;;;;5090576;28;20492;-72
2023/03/06 09:20:10;;;;;;;20.90;20.10;;;9.10;90.60;;;;;;5060822;28;20033;-72
2023/03/06 09:22:37;;;;;;;20.25;19.45;;;9.10;90.60;;;;;;5078740;28;20021;-72
2023/03/06 09:25:03;;;;;;;;;;;9.00;90.70;;;;;;5080732;28;20427;-71
2023/03/06 09:27:29;;;;;;;19.38;18.58;;;9.00;90.70;;;;;;5078513;28;19908;-72
2023/03/06 09:29:55;;;;;;;20.48;19.67;;;9.00;90.70;;;;;;5080244;28;20150;-71
2023/03/06 09:32:22;;;;;;;20.33;19.52;;;9.00;90.70;;;;;;5078581;28;20101;-72
2023/03/06 09:34:48;;;;;;;19.27;18.48;;;9.00;90.70;;;;;;5078217;28;20063;-72
2023/03/06 09:37:14;;;;;;;;;;;9.00;90.80;;;;;;5080589;28;20028;-73
2023/03/06 09:39:40;;;;;;;17.52;16.83;;;9.00;90.70;;;;;;5077634;28;19908;-72
2023/03/06 09:42:07;;;;;;;19.33;18.52;;;9.00;90.70;;;;;;5069604;28;20036;-73
2023/03/06 09:44:37;;;;;;;18.25;17.52;;;9.00;90.70;;;;;;5069800;28;20032;-71
2023/03/06 09:47:11;;;;;;;18.30;17.55;;;9.00;90.70;;;;;;5069535;28;20032;-71
2023/03/06 09:50:14;;;;;;;18.48;17.67;;;9.00;90.80;;;;;;5069413;28;20024;-71
2023/03/06 09:52:58;;;;;;;17.75;17.05;;;9.00;90.80;;;;;;5069545;28;20036;-73
2023/03/06 09:55:26;;;;;;;19.13;18.33;;;9.00;90.80;;;;;;5069956;28;20538;-73
2023/03/06 09:58:09;;;;;;;20.40;19.60;;;9.10;90.80;;;;;;5069805;28;20064;-71
2023/03/06 10:00:43;;;;;;;19.05;18.25;;;9.10;90.80;;;;;;5070211;28;20447;-71
2023/03/06 10:03:20;;;;;;;20.63;19.83;;;9.10;90.80;;;;;;5070276;28;20017;-72
2023/03/06 10:05:48;;;;;;;;;;;9.10;90.80;;;;;;5069220;28;20036;-72
2023/03/06 10:08:20;;;;;;;20.33;19.52;;;9.10;90.80;;;;;;5070202;28;19909;-71
2023/03/06 10:10:56;;;;;;;20.05;19.25;;;9.10;90.80;;;;;;5070256;28;20054;-72
2023/03/06 10:13:24;;;;;;;20.65;19.85;;;9.20;90.80;;;;;;5070589;28;20028;-72
2023/03/06 10:16:02;;;;;;;19.77;18.98;;;9.20;90.80;;;;;;5070134;28;20052;-72
2023/03/06 10:18:27;;;;;;;19.70;18.90;;;9.20;90.80;;;;;;5070382;28;20032;-72
2023/03/06 10:21:02;;;;;;;20.17;19.38;;;9.20;90.80;;;;;;5070334;28;20070;-72
2023/03/06 10:23:46;;;;;;;19.55;18.75;;;9.20;90.70;;;;;;5068168;28;20021;-71
2023/03/06 10:26:18;;;;;;;19.52;18.73;;;9.20;90.80;;;;;;5069995;28;20389;-72
2023/03/06 10:29:09;;;;;;;20.65;19.85;;;9.20;90.80;;;;;;5068791;28;20095;-72
2023/03/06 10:31:37;;;;;;;21.05;20.25;;;9.10;90.80;;;;;;5061942;28;20051;-72
2023/03/06 10:34:18;;;;;;;20.95;20.13;;;9.10;90.80;;;;;;5069976;28;20033;-72
2023/03/06 10:36:44;;;;;;;22.40;21.50;;;9.00;90.70;;;;;;5069226;28;20024;-72
2023/03/06 10:39:18;;;;;;;22.95;22.05;;;9.00;90.70;;;;;;5067115;28;20024;-72
2023/03/06 10:41:45;;;;;;;23.67;22.77;;;9.00;90.80;;;;;;5069220;28;20102;-72
2023/03/06 10:44:16;;;;;;;25.30;24.30;;;8.90;90.80;;;;;;5085556;28;20460;-72
2023/03/06 10:46:44;;;;;;;26.67;25.67;;;9.00;90.80;;;;;;5089311;28;20027;-73
2023/03/06 10:49:23;;;;;;;28.05;26.95;;;9.10;90.90;;;;;;5088539;28;20676;-73
2023/03/06 10:51:57;;;;;;;30.00;28.90;;;9.20;90.90;;;;;;5089794;28;20043;-72
2023/03/06 10:54:22;;;;;;;30.48;29.30;;;9.30;90.90;;;;;;5089776;28;20407;-71
2023/03/06 10:56:48;;;;;;;31.55;30.35;;;9.40;90.90;;;;;;5084451;28;20086;-74
2023/03/06 10:59:21;;;;;;;32.80;31.60;;;9.50;90.90;;;;;;5067899;28;20025;-73
2023/03/06 11:01:49;;;;;;;31.42;30.23;;;9.60;90.90;;;;;;5067821;28;20036;-73
2023/03/06 11:04:32;;;;;;;32.35;31.15;;;9.70;90.80;;;;;;5069349;28;20100;-74
2023/03/06 11:07:17;;;;;;;31.90;30.70;;;9.70;90.80;;;;;;5069457;28;20029;-73
2023/03/06 11:10:06;;;;;;;31.92;30.73;;;9.60;90.80;;;;;;5067398;28;20458;-72
2023/03/06 11:12:37;;;;;;;32.03;30.83;;;9.60;90.80;;;;;;5068174;28;20467;-73
2023/03/06 11:15:11;;;;;;;34.78;33.47;;;9.70;90.90;;;;;;5068763;28;20036;-71
2023/03/06 11:17:49;;;;;;;34.78;33.47;;;9.80;90.90;;;;;;5067321;28;20076;-74
2023/03/06 11:20:18;;;;;;;35.35;34.05;;;9.80;90.90;;;;;;5068969;28;20017;-72
2023/03/06 11:23:15;;;;;;;35.25;33.95;;;9.90;90.90;;;;;;5069181;28;20025;-73
2023/03/06 11:25:47;;;;;;;34.97;33.67;;;10.00;90.90;;;;;;5068664;28;20115;-72
2023/03/06 11:28:27;;;;;;;34.95;33.65;;;10.00;90.80;;;;;;5069504;28;20069;-79
2023/03/06 11:31:33;;;;;;;34.85;33.55;;;10.00;90.90;;;;;;5069797;28;20035;-78
2023/03/06 11:34:10;;;;;;;34.45;33.15;;;10.10;91.00;;;;;;5027258;28;20133;-76
2023/03/06 11:36:54;;;;;;;34.05;32.75;;;10.20;91.00;;;;;;5061750;28;20388;-75
2023/03/06 11:39:27;;;;;;;37.13;35.72;;;10.30;91.10;;;;;;5069372;28;20020;-72
2023/03/06 11:42:13;;;;;;;35.45;34.15;;;10.50;91.10;;;;;;5067958;28;20333;-72
2023/03/06 11:45:20;;;;;;;32.42;31.23;;;10.70;91.10;;;;;;5067931;28;20495;-72
2023/03/06 11:47:58;;;;;;;33.25;32.00;;;10.80;91.10;;;;;;5009285;28;20382;-73
2023/03/06 11:50:34;;;;;;;29.88;28.77;;;11.00;91.20;;;;;;5062388;28;20423;-73
2023/03/06 11:53:06;;;;;;;28.87;27.77;;;11.20;91.20;;;;;;5068240;28;20032;-71
2023/03/06 11:55:47;;;;;;;25.67;24.67;;;11.30;91.10;;;;;;5067664;28;20021;-71
2023/03/06 11:58:38;;;;;;;25.50;24.50;;;11.50;91.20;;;;;;5067913;28;20071;-71
2023/03/06 12:01:23;;;;;;;21.85;20.95;;;11.70;91.20;;;;;;5067930;28;20020;-71
2023/03/06 12:04:12;;;;;;;17.35;16.65;;;12.00;91.20;;;;;;5067848;28;20016;-73
2023/03/06 12:06:55;;;;;;;16.38;15.68;;;12.10;91.20;;;;;;5067663;28;20040;-71
2023/03/06 12:09:38;;;;;;;12.70;12.10;;;12.20;91.20;;;;;;5068161;28;20016;-72
2023/03/06 12:12:24;;;;;;;11.93;11.43;;;12.20;91.00;;;;;;5068370;28;20165;-73
2023/03/06 12:15:18;;;;;;;11.82;11.32;;;12.10;91.00;;;;;;5067930;28;20016;-74
2023/03/06 12:17:59;;;;;;;11.63;11.13;;;12.10;91.00;;;;;;5070672;28;20093;-72
2023/03/06 12:20:43;;;;;;;10.05;9.55;;;12.00;91.10;;;;;;5077043;28;20027;-73
2023/03/06 12:23:18;;;;;;;10.55;10.05;;;12.00;91.20;;;;;;5073426;28;20033;-72
2023/03/06 12:26:03;;;;;;;9.70;9.20;;;12.20;91.30;;;;;;5082120;28;20375;-72
2023/03/06 12:28:39;;;;;;;8.18;7.78;;;12.40;91.30;;;;;;5076271;28;20090;-73
2023/03/06 12:31:26;;;;;;;6.13;5.82;;;12.60;91.20;;;;;;5081209;28;20028;-77
2023/03/06 12:34:01;;;;;;;;;;;12.70;91.20;;;;;;5055477;28;20463;-78
2023/03/06 12:37:17;;;;;;;4.88;4.57;;;12.70;91.10;;;;;;5072217;28;19904;-78
2023/03/06 12:40:16;;;;;;;4.72;4.43;;;12.70;91.10;;;;;;5035464;28;20104;-81
2023/03/06 12:42:42;;;;;;;4.00;3.70;;;12.60;91.00;;;;;;5075242;28;20369;-79
2023/03/06 12:45:28;;;;;;;4.30;4.00;;;12.40;90.90;;;;;;5094216;28;20043;-80
2023/03/06 12:47:55;;;;;;;4.00;3.70;;;12.20;91.00;;;;;;5091037;28;20036;-79
2023/03/06 12:50:25;;;;;;;3.85;3.55;;;12.20;91.10;;;;;;5086660;28;20038;-75
2023/03/06 12:52:53;;;;;;;3.50;3.20;;;12.10;91.10;;;;;;5073358;28;20023;-79
2023/03/06 12:55:20;;;;;;;3.30;3.10;;;12.00;91.10;;;;;;5089126;28;20020;-77